createdAt,value
2018-06-27T00:00:09.536Z,83.69
2018-06-27T00:01:09.712Z,81.11
2018-06-27T00:02:09.910Z,80.73
2018-06-27T00:03:10.087Z,80.44
2018-06-27T00:04:10.272Z,80.35
2018-06-27T00:05:10.454Z,80.50
2018-06-27T00:06:10.624Z,80.69
2018-06-27T00:07:10.813Z,80.79
2018-06-27T00:08:11.014Z,81.16
2018-06-27T00:09:11.188Z,81.74
2018-06-27T00:10:11.373Z,80.98
2018-06-27T00:11:11.573Z,81.36
2018-06-27T00:12:11.748Z,81.07
2018-06-27T00:13:11.932Z,81.26
2018-06-27T00:14:12.178Z,80.88
2018-06-27T00:15:12.352Z,79.25
2018-06-27T00:16:12.540Z,79.16
2018-06-27T00:17:12.716Z,79.16
2018-06-27T00:18:12.901Z,78.87
2018-06-27T00:19:13.067Z,78.58
2018-06-27T00:20:13.281Z,78.97
2018-06-27T00:21:13.460Z,78.78
2018-06-27T00:22:13.633Z,78.39
2018-06-27T00:23:13.810Z,78.39
2018-06-27T00:24:13.990Z,77.72
2018-06-27T00:25:14.188Z,77.72
2018-06-27T00:26:14.400Z,77.44
2018-06-27T00:27:14.572Z,77.82
2018-06-27T00:28:14.757Z,78.20
2018-06-27T00:29:14.947Z,78.49
2018-06-27T00:30:15.126Z,78.11
2018-06-27T00:31:15.327Z,77.44
2018-06-27T00:32:15.499Z,77.15
2018-06-27T00:33:15.689Z,75.43
2018-06-27T00:34:15.870Z,74.76
2018-06-27T00:35:16.049Z,76.39
2018-06-27T00:36:16.249Z,76.06
2018-06-27T00:37:16.425Z,75.78
2018-06-27T00:38:16.601Z,75.20
2018-06-27T00:39:16.783Z,74.34
2018-06-27T00:40:16.987Z,73.77
2018-06-27T00:41:17.191Z,73.39
2018-06-27T00:42:17.367Z,73.29
2018-06-27T00:43:17.544Z,72.14
2018-06-27T00:44:17.738Z,71.86
2018-06-27T00:45:17.940Z,71.86
2018-06-27T00:46:18.131Z,71.95
2018-06-27T00:47:18.300Z,72.14
2018-06-27T00:48:18.486Z,71.28
2018-06-27T00:49:18.691Z,70.90
2018-06-27T00:50:18.868Z,71.57
2018-06-27T00:51:19.058Z,71.47
2018-06-27T00:52:19.236Z,71.86
2018-06-27T00:53:19.435Z,71.95
2018-06-27T00:54:19.605Z,72.05
2018-06-27T00:55:19.785Z,72.24
2018-06-27T00:56:19.977Z,72.24
2018-06-27T00:57:20.157Z,72.62
2018-06-27T00:58:20.335Z,71.67
2018-06-27T00:59:20.510Z,71.57
2018-06-27T01:00:20.692Z,71.38
2018-06-27T01:01:20.864Z,70.61
2018-06-27T01:02:21.042Z,69.95
2018-06-27T01:03:21.217Z,68.80
2018-06-27T01:04:21.416Z,68.90
2018-06-27T01:05:21.607Z,68.32
2018-06-27T01:06:21.792Z,67.94
2018-06-27T01:07:21.992Z,67.84
2018-06-27T01:08:22.232Z,66.50
2018-06-27T01:09:22.415Z,66.03
2018-06-27T01:10:22.598Z,66.13
2018-06-27T01:11:22.774Z,65.55
2018-06-27T01:12:22.967Z,64.78
2018-06-27T01:13:23.143Z,65.93
2018-06-27T01:14:23.316Z,65.64
2018-06-27T01:15:23.484Z,65.17
2018-06-27T01:16:23.712Z,64.59
2018-06-27T01:17:23.896Z,64.40
2018-06-27T01:18:24.076Z,64.31
2018-06-27T01:19:24.251Z,64.12
2018-06-27T01:20:39.035Z,63.54
2018-06-27T01:21:24.589Z,62.49
2018-06-27T01:22:24.787Z,62.01
2018-06-27T01:23:24.968Z,61.13
2018-06-27T01:24:25.166Z,60.17
2018-06-27T01:25:25.338Z,59.91
2018-06-27T01:26:25.518Z,58.83
2018-06-27T01:27:25.698Z,57.02
2018-06-27T01:28:25.883Z,57.59
2018-06-27T01:29:26.058Z,57.50
2018-06-27T01:30:26.236Z,57.14
2018-06-27T01:31:26.413Z,56.82
2018-06-27T01:32:26.582Z,57.11
2018-06-27T01:33:26.756Z,57.02
2018-06-27T01:34:26.958Z,57.31
2018-06-27T01:35:27.146Z,57.11
2018-06-27T01:36:27.321Z,57.11
2018-06-27T01:37:27.516Z,57.11
2018-06-27T01:38:27.714Z,56.63
2018-06-27T01:39:27.895Z,56.16
2018-06-27T01:40:28.083Z,56.25
2018-06-27T01:41:28.271Z,56.45
2018-06-27T01:42:28.445Z,56.25
2018-06-27T01:43:28.629Z,56.54
2018-06-27T01:44:28.807Z,57.40
2018-06-27T01:45:28.992Z,56.73
2018-06-27T01:46:29.184Z,56.54
2018-06-27T01:47:29.357Z,55.77
2018-06-27T01:48:29.527Z,55.20
2018-06-27T01:49:29.856Z,54.53
2018-06-27T01:50:29.911Z,54.44
2018-06-27T01:51:30.112Z,54.91
2018-06-27T01:52:30.293Z,56.35
2018-06-27T01:53:30.478Z,57.02
2018-06-27T01:54:30.649Z,56.16
2018-06-27T01:55:30.837Z,55.68
2018-06-27T01:56:31.015Z,54.06
2018-06-27T01:57:31.199Z,53.10
2018-06-27T01:58:31.395Z,55.40
2018-06-27T01:59:31.575Z,55.11
2018-06-27T02:00:31.767Z,54.44
2018-06-27T02:03:15.176Z,55.30
2018-06-27T02:04:15.354Z,55.49
2018-06-27T02:05:15.546Z,55.68
2018-06-27T02:06:15.734Z,55.68
2018-06-27T02:07:15.912Z,56.25
2018-06-27T02:08:16.145Z,56.06
2018-06-27T02:09:16.267Z,56.06
2018-06-27T02:10:16.460Z,55.96
2018-06-27T02:11:16.610Z,55.58
2018-06-27T02:12:16.799Z,55.30
2018-06-27T02:13:16.986Z,55.58
2018-06-27T02:14:17.154Z,57.50
2018-06-27T02:15:17.341Z,56.82
2018-06-27T02:16:17.525Z,55.77
2018-06-27T02:17:17.708Z,55.30
2018-06-27T02:18:17.880Z,54.53
2018-06-27T02:19:18.063Z,54.06
2018-06-27T02:20:18.250Z,54.44
2018-06-27T02:21:18.445Z,53.77
2018-06-27T02:22:18.642Z,53.20
2018-06-27T02:23:18.786Z,53.49
2018-06-27T02:24:18.981Z,53.29
2018-06-27T02:25:19.147Z,53.20
2018-06-27T02:26:19.328Z,53.29
2018-06-27T02:27:19.504Z,52.91
2018-06-27T02:28:19.700Z,52.79
2018-06-27T02:29:19.893Z,52.34
2018-06-27T02:30:20.078Z,52.72
2018-06-27T02:31:20.258Z,52.81
2018-06-27T02:32:20.456Z,52.50
2018-06-27T02:33:20.652Z,52.59
2018-06-27T02:34:20.848Z,52.43
2018-06-27T02:35:21.032Z,52.05
2018-06-27T02:36:21.224Z,52.15
2018-06-27T02:37:21.421Z,51.67
2018-06-27T02:38:21.567Z,51.38
2018-06-27T02:39:21.765Z,51.76
2018-06-27T02:40:21.945Z,51.54
2018-06-27T02:41:22.120Z,51.09
2018-06-27T02:42:22.292Z,51.00
2018-06-27T02:43:22.481Z,52.79
2018-06-27T02:44:22.657Z,52.40
2018-06-27T02:45:22.850Z,51.38
2018-06-27T02:46:23.054Z,51.38
2018-06-27T02:47:23.209Z,51.48
2018-06-27T02:48:23.402Z,51.95
2018-06-27T02:49:23.580Z,52.22
2018-06-27T02:50:23.749Z,52.50
2018-06-27T02:51:23.973Z,52.69
2018-06-27T02:52:24.154Z,52.98
2018-06-27T02:53:24.328Z,53.27
2018-06-27T02:54:24.511Z,53.45
2018-06-27T02:55:24.695Z,53.55
2018-06-27T02:56:24.905Z,53.08
2018-06-27T02:57:25.102Z,53.27
2018-06-27T02:58:25.292Z,53.45
2018-06-27T02:59:25.468Z,53.45
2018-06-27T03:00:25.657Z,54.60
2018-06-27T03:01:25.848Z,54.41
2018-06-27T03:02:26.034Z,54.13
2018-06-27T03:03:26.210Z,53.17
2018-06-27T03:04:26.389Z,52.40
2018-06-27T03:05:26.567Z,52.50
2018-06-27T03:06:26.750Z,52.31
2018-06-27T03:07:26.922Z,52.50
2018-06-27T03:08:27.176Z,52.50
2018-06-27T03:09:27.344Z,52.40
2018-06-27T03:10:27.522Z,52.03
2018-06-27T03:11:27.688Z,51.64
2018-06-27T03:12:27.872Z,51.45
2018-06-27T03:13:28.048Z,51.35
2018-06-27T03:14:28.236Z,51.45
2018-06-27T03:15:28.424Z,51.54
2018-06-27T03:16:28.586Z,51.35
2018-06-27T03:17:28.766Z,52.03
2018-06-27T03:18:28.947Z,51.83
2018-06-27T03:19:29.145Z,51.74
2018-06-27T03:20:29.360Z,52.50
2018-06-27T03:21:29.505Z,53.45
2018-06-27T03:22:29.677Z,52.12
2018-06-27T03:23:29.860Z,49.35
2018-06-27T03:24:30.033Z,47.16
2018-06-27T03:25:30.228Z,46.11
2018-06-27T03:26:30.409Z,44.58
2018-06-27T03:27:30.601Z,45.15
2018-06-27T03:28:30.760Z,44.10
2018-06-27T03:29:30.946Z,42.57
2018-06-27T03:30:31.123Z,41.50
2018-06-27T03:31:31.318Z,40.76
2018-06-27T03:32:31.501Z,40.36
2018-06-27T03:33:31.680Z,39.02
2018-06-27T03:34:31.867Z,38.47
2018-06-27T03:35:32.056Z,38.54
2018-06-27T03:36:32.239Z,38.09
2018-06-27T03:37:32.415Z,37.23
2018-06-27T03:38:32.613Z,36.66
2018-06-27T03:39:32.782Z,35.87
2018-06-27T03:40:32.976Z,35.70
2018-06-27T03:41:33.176Z,34.44
2018-06-27T03:42:33.347Z,33.89
2018-06-27T03:43:33.518Z,33.78
2018-06-27T03:44:33.705Z,33.03
2018-06-27T03:45:33.902Z,32.65
2018-06-27T03:46:34.062Z,32.26
2018-06-27T03:47:34.240Z,32.17
2018-06-27T03:48:34.419Z,32.55
2018-06-27T03:49:34.600Z,32.84
2018-06-27T03:50:34.771Z,34.27
2018-06-27T03:51:34.950Z,34.46
2018-06-27T03:52:35.122Z,34.84
2018-06-27T03:53:35.299Z,35.89
2018-06-27T03:54:35.487Z,37.71
2018-06-27T03:55:35.675Z,38.56
2018-06-27T03:56:35.852Z,37.51
2018-06-27T03:57:36.036Z,37.13
2018-06-27T03:58:36.232Z,36.56
2018-06-27T03:59:36.379Z,36.08
2018-06-27T04:00:36.561Z,36.08
2018-06-27T04:01:36.767Z,36.56
2018-06-27T04:02:36.951Z,37.23
2018-06-27T04:03:37.131Z,37.23
2018-06-27T04:04:37.309Z,37.42
2018-06-27T04:05:37.505Z,37.23
2018-06-27T04:06:37.708Z,38.76
2018-06-27T04:07:37.906Z,39.92
2018-06-27T04:08:38.075Z,41.06
2018-06-27T04:09:38.254Z,41.16
2018-06-27T04:10:38.440Z,41.16
2018-06-27T04:11:38.653Z,41.06
2018-06-27T04:12:38.868Z,41.93
2018-06-27T04:13:39.008Z,42.21
2018-06-27T04:14:39.270Z,43.84
2018-06-27T04:15:39.352Z,44.41
2018-06-27T04:16:39.529Z,44.70
2018-06-27T04:17:39.715Z,44.89
2018-06-27T04:18:39.891Z,45.56
2018-06-27T04:19:40.077Z,46.32
2018-06-27T04:20:40.256Z,45.94
2018-06-27T04:21:40.443Z,46.22
2018-06-27T04:22:40.630Z,45.75
2018-06-27T04:23:40.819Z,45.75
2018-06-27T04:24:41.014Z,45.56
2018-06-27T04:25:41.190Z,45.27
2018-06-27T04:26:41.362Z,45.08
2018-06-27T04:27:41.552Z,44.60
2018-06-27T04:28:41.746Z,44.70
2018-06-27T04:29:41.912Z,44.70
2018-06-27T04:30:42.088Z,44.60
2018-06-27T04:31:42.272Z,44.31
2018-06-27T04:32:42.458Z,44.79
2018-06-27T04:33:42.630Z,43.93
2018-06-27T04:34:42.808Z,44.15
2018-06-27T04:35:43.005Z,45.37
2018-06-27T04:36:43.238Z,45.39
2018-06-27T04:37:43.381Z,45.58
2018-06-27T04:38:43.561Z,45.20
2018-06-27T04:39:43.762Z,46.92
2018-06-27T04:40:43.948Z,48.54
2018-06-27T04:41:44.133Z,49.21
2018-06-27T04:42:44.312Z,49.69
2018-06-27T04:43:44.515Z,50.55
2018-06-27T04:44:44.699Z,51.43
2018-06-27T04:45:44.875Z,56.69
2018-06-27T04:46:45.045Z,59.30
2018-06-27T04:47:45.260Z,65.94
2018-06-27T04:48:45.459Z,71.91
2018-06-27T04:49:45.621Z,74.24
2018-06-27T04:50:45.810Z,83.38
2018-06-27T04:51:46.044Z,85.97
2018-06-27T04:52:46.228Z,88.37
2018-06-27T04:53:46.421Z,89.18
2018-06-27T04:54:46.605Z,90.42
2018-06-27T04:55:46.789Z,91.72
2018-06-27T04:56:46.974Z,92.19
2018-06-27T04:57:47.163Z,93.59
2018-06-27T04:58:47.350Z,93.68
2018-06-27T04:59:47.535Z,94.21
2018-06-27T05:00:47.739Z,94.45
2018-06-27T05:01:47.935Z,97.38
2018-06-27T05:02:48.089Z,96.85
2018-06-27T05:03:48.282Z,96.37
2018-06-27T05:04:48.456Z,97.47
2018-06-27T05:05:48.657Z,97.09
2018-06-27T05:06:48.843Z,97.96
2018-06-27T05:07:49.032Z,97.71
2018-06-27T05:08:49.206Z,98.58
2018-06-27T05:09:49.413Z,98.39
2018-06-27T05:10:49.638Z,97.67
2018-06-27T05:11:49.841Z,98.29
2018-06-27T05:12:50.017Z,98.68
2018-06-27T05:13:50.226Z,97.67
2018-06-27T05:14:50.408Z,98.34
2018-06-27T05:15:50.628Z,98.14
2018-06-27T05:16:50.805Z,99.54
2018-06-27T05:17:50.998Z,98.77
2018-06-27T05:18:51.202Z,98.63
2018-06-27T05:19:51.394Z,99.16
2018-06-27T05:20:51.583Z,99.30
2018-06-27T05:21:51.835Z,99.30
2018-06-27T05:22:51.972Z,98.39
2018-06-27T05:23:52.153Z,98.39
2018-06-27T05:24:52.330Z,97.76
2018-06-27T05:25:52.557Z,97.86
2018-06-27T05:26:52.743Z,97.14
2018-06-27T05:27:52.950Z,96.51
2018-06-27T05:28:53.140Z,95.74
2018-06-27T05:29:53.323Z,95.40
2018-06-27T05:30:53.576Z,94.92
2018-06-27T05:31:53.772Z,94.43
2018-06-27T05:32:53.963Z,95.50
2018-06-27T05:33:54.149Z,94.63
2018-06-27T05:34:54.328Z,94.96
2018-06-27T05:35:54.540Z,95.40
2018-06-27T05:36:54.746Z,94.96
2018-06-27T05:37:54.944Z,95.21
2018-06-27T05:38:55.132Z,94.53
2018-06-27T05:39:55.330Z,96.46
2018-06-27T05:40:55.513Z,97.57
2018-06-27T05:41:55.705Z,98.92
2018-06-27T05:42:55.908Z,99.35
2018-06-27T05:43:56.100Z,99.99
2018-06-27T05:44:56.295Z,99.99
2018-06-27T05:45:56.482Z,99.99
2018-06-27T05:46:56.672Z,99.99
2018-06-27T05:47:56.883Z,99.99
2018-06-27T05:48:57.074Z,99.99
2018-06-27T05:49:57.273Z,99.99
2018-06-27T05:50:57.472Z,99.99
2018-06-27T05:51:57.661Z,99.99
2018-06-27T05:52:57.857Z,99.40
2018-06-27T05:53:58.048Z,99.99
2018-06-27T05:54:58.234Z,99.99
2018-06-27T05:55:58.422Z,99.30
2018-06-27T05:56:58.601Z,98.58
2018-06-27T05:57:58.816Z,97.67
2018-06-27T05:58:59.002Z,97.47
2018-06-27T05:59:59.185Z,96.75
2018-06-27T06:01:07.057Z,97.91
2018-06-27T06:01:59.614Z,97.81
2018-06-27T06:02:59.853Z,98.24
2018-06-27T06:04:00.051Z,98.00
2018-06-27T06:05:00.287Z,97.57
2018-06-27T06:06:00.496Z,97.04
2018-06-27T06:07:00.687Z,96.89
2018-06-27T06:08:08.541Z,97.47
2018-06-27T06:09:01.102Z,96.66
2018-06-27T06:10:01.367Z,96.51
2018-06-27T06:11:01.499Z,95.98
2018-06-27T06:12:01.727Z,95.74
2018-06-27T06:13:01.944Z,96.51
2018-06-27T06:14:02.103Z,97.09
2018-06-27T06:15:02.318Z,97.28
2018-06-27T06:16:02.542Z,97.14
2018-06-27T06:17:02.734Z,96.08
2018-06-27T06:18:02.937Z,95.69
2018-06-27T06:19:03.164Z,95.64
2018-06-27T06:21:35.404Z,94.77
2018-06-27T06:22:35.590Z,95.54
2018-06-27T06:23:35.778Z,95.40
2018-06-27T06:24:35.974Z,97.19
2018-06-27T06:25:36.157Z,96.94
2018-06-27T06:26:36.363Z,96.85
2018-06-27T06:27:36.556Z,98.20
2018-06-27T06:28:44.394Z,99.45
2018-06-27T06:29:36.932Z,99.99
2018-06-27T06:30:37.120Z,98.82
2018-06-27T06:31:37.297Z,97.91
2018-06-27T06:32:38.370Z,96.75
2018-06-27T06:33:37.703Z,96.94
2018-06-27T06:34:37.910Z,97.81
2018-06-27T06:35:38.106Z,97.04
2018-06-27T06:36:38.283Z,95.98
2018-06-27T06:37:38.479Z,95.98
2018-06-27T06:38:38.672Z,97.04
2018-06-27T06:39:38.853Z,96.56
2018-06-27T06:40:39.101Z,96.27
2018-06-27T06:41:39.213Z,95.93
2018-06-27T06:42:39.416Z,96.85
2018-06-27T06:43:39.617Z,97.52
2018-06-27T06:44:39.802Z,99.55
2018-06-27T06:45:40.019Z,99.35
2018-06-27T06:46:40.182Z,98.20
2018-06-27T06:47:40.386Z,98.49
2018-06-27T06:48:40.578Z,98.05
2018-06-27T06:49:40.813Z,99.16
2018-06-27T06:50:40.987Z,97.81
2018-06-27T06:51:41.172Z,97.72
2018-06-27T06:52:41.363Z,97.81
2018-06-27T06:53:41.550Z,97.96
2018-06-27T06:54:41.733Z,99.16
2018-06-27T06:55:41.924Z,99.07
2018-06-27T06:56:42.116Z,98.77
2018-06-27T06:57:42.336Z,99.16
2018-06-27T06:58:42.533Z,98.10
2018-06-27T06:59:42.683Z,97.81
2018-06-27T07:00:42.876Z,98.10
2018-06-27T07:01:43.080Z,98.34
2018-06-27T07:02:43.257Z,97.86
2018-06-27T07:03:43.454Z,96.66
2018-06-27T07:04:43.642Z,95.88
2018-06-27T07:05:43.835Z,96.66
2018-06-27T07:06:44.033Z,95.59
2018-06-27T07:07:44.208Z,95.26
2018-06-27T07:08:44.396Z,96.03
2018-06-27T07:09:44.590Z,96.56
2018-06-27T07:10:44.776Z,95.50
2018-06-27T07:11:44.956Z,95.88
2018-06-27T07:12:45.160Z,95.21
2018-06-27T07:13:45.343Z,94.53
2018-06-27T07:14:45.535Z,95.50
2018-06-27T07:15:45.731Z,95.21
2018-06-27T07:16:45.921Z,94.92
2018-06-27T07:17:46.182Z,94.73
2018-06-27T07:18:46.295Z,94.24
2018-06-27T07:19:46.476Z,95.40
2018-06-27T07:20:46.661Z,95.93
2018-06-27T07:21:46.854Z,96.56
2018-06-27T07:22:47.031Z,97.47
2018-06-27T07:23:47.256Z,99.16
2018-06-27T07:24:47.440Z,99.64
2018-06-27T07:25:47.633Z,97.96
2018-06-27T07:26:47.826Z,98.63
2018-06-27T07:27:48.014Z,98.34
2018-06-27T07:28:48.237Z,96.61
2018-06-27T07:29:48.416Z,96.66
2018-06-27T07:30:48.572Z,95.50
2018-06-27T07:31:48.750Z,94.24
2018-06-27T07:32:48.936Z,93.66
2018-06-27T07:33:49.123Z,93.28
2018-06-27T07:34:49.315Z,93.08
2018-06-27T07:35:49.508Z,92.50
2018-06-27T07:36:49.687Z,92.16
2018-06-27T07:37:49.878Z,92.55
2018-06-27T07:38:50.074Z,93.47
2018-06-27T07:39:50.274Z,94.24
2018-06-27T07:40:50.433Z,94.24
2018-06-27T07:41:50.622Z,93.76
2018-06-27T07:42:51.811Z,93.42
2018-06-27T07:43:51.001Z,92.50
2018-06-27T07:44:51.202Z,91.77
2018-06-27T07:45:51.398Z,89.79
2018-06-27T07:46:51.579Z,90.42
2018-06-27T07:47:51.810Z,89.94
2018-06-27T07:48:52.026Z,89.59
2018-06-27T07:49:52.291Z,89.11
2018-06-27T07:50:52.415Z,90.41
2018-06-27T07:51:52.598Z,89.45
2018-06-27T07:52:52.817Z,88.77
2018-06-27T07:53:52.997Z,88.77
2018-06-27T07:54:53.205Z,88.29
2018-06-27T07:55:53.417Z,89.25
2018-06-27T07:56:53.601Z,89.83
2018-06-27T07:57:53.796Z,88.13
2018-06-27T07:58:53.989Z,86.93
2018-06-27T07:59:54.183Z,87.85
2018-06-27T08:00:54.371Z,87.81
2018-06-27T08:01:54.570Z,88.09
2018-06-27T08:02:54.762Z,86.83
2018-06-27T08:03:54.960Z,86.20
2018-06-27T08:04:55.155Z,86.20
2018-06-27T08:05:55.411Z,85.87
2018-06-27T08:06:55.536Z,86.78
2018-06-27T08:07:55.750Z,86.10
2018-06-27T08:08:55.972Z,85.66
2018-06-27T08:09:56.158Z,85.08
2018-06-27T08:10:56.342Z,84.31
2018-06-27T08:11:56.530Z,83.64
2018-06-27T08:12:56.879Z,85.49
2018-06-27T08:13:56.953Z,87.67
2018-06-27T08:14:57.142Z,89.85
2018-06-27T08:15:57.329Z,90.86
2018-06-27T08:16:57.536Z,89.17
2018-06-27T08:17:57.831Z,87.57
2018-06-27T08:18:57.924Z,86.16
2018-06-27T08:19:58.121Z,85.48
2018-06-27T08:20:58.930Z,86.75
2018-06-27T08:21:58.523Z,88.01
2018-06-27T08:22:58.710Z,87.58
2018-06-27T08:23:58.918Z,89.47
2018-06-27T08:24:59.119Z,89.51
2018-06-27T08:25:59.414Z,88.25
2018-06-27T08:26:59.529Z,88.73
2018-06-27T08:28:00.414Z,89.12
2018-06-27T08:28:59.937Z,88.73
2018-06-27T08:30:00.971Z,89.47
2018-06-27T08:31:00.333Z,90.95
2018-06-27T08:32:00.518Z,91.11
2018-06-27T08:33:00.721Z,90.62
2018-06-27T08:34:00.922Z,90.81
2018-06-27T08:35:01.108Z,91.15
2018-06-27T08:36:01.298Z,92.07
2018-06-27T08:37:01.488Z,90.03
2018-06-27T08:38:01.693Z,88.06
2018-06-27T08:39:01.936Z,89.03
2018-06-27T08:40:02.068Z,88.06
2018-06-27T08:41:02.243Z,87.04
2018-06-27T08:42:02.460Z,88.20
2018-06-27T08:43:02.704Z,86.36
2018-06-27T08:44:02.897Z,83.75
2018-06-27T08:45:03.108Z,86.51
2018-06-27T08:46:03.309Z,86.21
2018-06-27T08:47:04.470Z,84.28
2018-06-27T08:48:03.657Z,81.52
2018-06-27T08:49:03.828Z,79.58
2018-06-27T08:50:04.132Z,78.96
2018-06-27T08:51:04.230Z,79.17
2018-06-27T08:52:04.461Z,79.37
2018-06-27T08:53:04.720Z,79.95
2018-06-27T08:54:04.807Z,79.14
2018-06-27T08:55:04.987Z,78.75
2018-06-27T08:56:05.196Z,79.49
2018-06-27T08:57:05.399Z,81.60
2018-06-27T08:58:06.427Z,82.28
2018-06-27T08:59:05.746Z,84.16
2018-06-27T09:00:05.986Z,84.20
2018-06-27T09:01:06.131Z,84.10
2018-06-27T09:02:06.321Z,83.72
2018-06-27T09:03:07.215Z,82.98
2018-06-27T09:04:06.781Z,81.57
2018-06-27T09:05:06.970Z,80.41
2018-06-27T09:06:07.172Z,81.38
2018-06-27T09:07:07.352Z,80.07
2018-06-27T09:08:07.580Z,78.03
2018-06-27T09:09:07.759Z,78.09
2018-06-27T09:10:07.955Z,78.77
2018-06-27T09:11:08.155Z,80.03
2018-06-27T09:12:08.333Z,79.16
2018-06-27T09:13:08.530Z,79.35
2018-06-27T09:14:08.717Z,77.80
2018-06-27T09:15:08.912Z,75.54
2018-06-27T09:16:09.108Z,78.94
2018-06-27T09:17:09.342Z,81.35
2018-06-27T09:18:09.543Z,81.78
2018-06-27T09:19:09.743Z,82.46
2018-06-27T09:20:10.945Z,81.63
2018-06-27T09:21:10.129Z,81.19
2018-06-27T09:22:10.327Z,80.41
2018-06-27T09:23:10.509Z,78.81
2018-06-27T09:24:10.708Z,79.97
2018-06-27T09:25:10.893Z,79.00
2018-06-27T09:26:11.092Z,80.26
2018-06-27T09:27:11.288Z,79.97
2018-06-27T09:28:11.469Z,79.87
2018-06-27T09:30:54.401Z,80.26
2018-06-27T09:31:55.314Z,78.96
2018-06-27T09:32:54.779Z,79.17
2018-06-27T09:33:55.041Z,80.72
2018-06-27T09:34:55.123Z,82.07
2018-06-27T09:35:55.355Z,83.42
2018-06-27T09:36:55.543Z,81.59
2018-06-27T09:37:55.748Z,82.40
2018-06-27T09:38:55.941Z,82.98
2018-06-27T09:39:56.152Z,81.44
2018-06-27T09:40:57.287Z,81.78
2018-06-27T09:41:56.526Z,82.26
2018-06-27T09:42:56.674Z,82.71
2018-06-27T09:43:56.867Z,83.53
2018-06-27T09:44:57.088Z,83.63
2018-06-27T09:45:57.269Z,84.31
2018-06-27T09:46:57.516Z,83.63
2018-06-27T09:47:57.615Z,84.65
2018-06-27T09:48:57.823Z,84.50
2018-06-27T09:49:58.792Z,85.13
2018-06-27T09:50:58.166Z,85.42
2018-06-27T09:51:58.473Z,86.62
2018-06-27T09:52:58.557Z,86.62
2018-06-27T09:53:58.743Z,86.38
2018-06-27T09:54:58.963Z,85.31
2018-06-27T09:55:59.163Z,84.54
2018-06-27T09:56:59.415Z,85.16
2018-06-27T09:57:59.590Z,83.72
2018-06-27T09:58:59.779Z,85.21
2018-06-27T09:59:59.975Z,82.50
2018-06-27T10:01:00.165Z,81.53
2018-06-27T10:02:00.371Z,82.07
2018-06-27T10:03:00.599Z,83.29
2018-06-27T10:04:00.652Z,84.44
2018-06-27T10:05:00.841Z,84.64
2018-06-27T10:06:01.034Z,85.80
2018-06-27T10:07:01.232Z,84.25
2018-06-27T10:08:01.411Z,85.26
2018-06-27T10:09:01.595Z,83.72
2018-06-27T10:10:01.778Z,83.91
2018-06-27T10:11:01.991Z,84.33
2018-06-27T10:12:02.178Z,79.41
2018-06-27T10:13:03.361Z,81.34
2018-06-27T10:14:02.600Z,79.93
2018-06-27T10:15:02.672Z,78.29
2018-06-27T10:16:04.301Z,77.61
2018-06-27T10:17:03.159Z,77.22
2018-06-27T10:18:04.006Z,78.38
2018-06-27T10:19:03.498Z,79.06
2018-06-27T10:20:04.435Z,79.16
2018-06-27T10:21:03.931Z,79.64
2018-06-27T10:22:04.142Z,78.38
2018-06-27T10:23:05.828Z,79.22
2018-06-27T10:24:04.582Z,81.09
2018-06-27T10:25:04.854Z,79.54
2018-06-27T10:26:09.570Z,78.67
2018-06-27T10:27:05.297Z,77.42
2018-06-27T10:33:52.407Z,78.73
2018-06-27T10:34:51.751Z,79.60
2018-06-27T10:35:52.411Z,79.17
2018-06-27T10:36:52.153Z,80.05
2018-06-27T10:37:52.374Z,80.91
2018-06-27T10:38:53.464Z,79.85
2018-06-27T10:39:52.714Z,79.47
2018-06-27T10:40:52.958Z,78.89
2018-06-27T10:41:53.119Z,78.25
2018-06-27T10:42:53.361Z,78.83
2018-06-27T10:43:53.483Z,76.45
2018-06-27T10:44:53.649Z,74.65
2018-06-27T10:45:54.598Z,72.04
2018-06-27T10:46:54.545Z,72.46
2018-06-27T10:47:54.230Z,71.20
2018-06-27T10:48:54.562Z,70.30
2018-06-27T10:49:55.463Z,70.10
2018-06-27T10:50:54.904Z,70.50
2018-06-27T10:51:55.078Z,68.98
2018-06-27T10:52:55.141Z,69.56
2018-06-27T10:55:46.454Z,70.95
2018-06-27T10:56:41.051Z,66.69
2018-06-27T10:57:39.994Z,66.34
2018-06-27T10:58:41.026Z,65.72
2018-06-27T11:00:04.021Z,65.27
2018-06-27T11:00:41.635Z,67.11
2018-06-27T11:01:40.740Z,66.05
2018-06-27T11:02:41.069Z,66.05
2018-06-27T11:03:41.129Z,66.02
2018-06-27T11:04:41.424Z,64.34
2018-06-27T11:05:41.624Z,65.30
2018-06-27T11:06:41.759Z,66.40
2018-06-27T11:07:41.932Z,65.14
2018-06-27T11:08:42.209Z,63.69
2018-06-27T11:09:42.377Z,65.05
2018-06-27T11:10:42.519Z,65.05
2018-06-27T11:11:43.543Z,63.56
2018-06-27T11:12:42.987Z,63.27
2018-06-27T11:13:44.050Z,64.14
2018-06-27T11:14:43.388Z,65.17
2018-06-27T11:15:43.573Z,65.88
2018-06-27T11:16:43.762Z,63.05
2018-06-27T11:17:43.949Z,63.50
2018-06-27T11:18:44.146Z,64.98
2018-06-27T11:19:44.396Z,65.37
2018-06-27T11:20:44.574Z,63.76
2018-06-27T11:21:44.827Z,64.21
2018-06-27T11:22:44.911Z,65.47
2018-06-27T11:23:45.102Z,64.31
2018-06-27T11:24:45.414Z,65.59
2018-06-27T11:25:45.502Z,65.82
2018-06-27T11:26:46.585Z,63.59
2018-06-27T11:27:45.942Z,62.63
2018-06-27T11:28:46.083Z,63.66
2018-06-27T11:29:46.306Z,63.85
2018-06-27T11:30:46.446Z,62.56
2018-06-27T11:31:46.658Z,64.62
2018-06-27T11:32:46.961Z,64.72
2018-06-27T11:33:47.218Z,64.27
2018-06-27T11:34:50.138Z,63.18
2018-06-27T11:35:47.492Z,63.56
2018-06-27T11:36:48.472Z,64.24
2018-06-27T11:37:48.521Z,63.76
2018-06-27T11:38:48.257Z,65.11
2018-06-27T11:39:51.559Z,65.14
2018-06-27T11:40:48.537Z,65.63
2018-06-27T11:41:48.733Z,64.82
2018-06-27T11:42:48.980Z,65.40
2018-06-27T11:43:49.169Z,65.56
2018-06-27T11:44:50.513Z,65.95
2018-06-27T11:45:50.605Z,66.85
2018-06-27T11:46:49.768Z,67.88
2018-06-27T11:47:50.000Z,68.43
2018-06-27T11:48:50.220Z,69.39
2018-06-27T11:49:50.506Z,69.10
2018-06-27T11:50:50.621Z,70.54
2018-06-27T11:51:51.014Z,69.42
2018-06-27T11:52:51.027Z,69.36
2018-06-27T11:53:51.171Z,68.62
2018-06-27T11:54:52.199Z,68.56
2018-06-27T11:55:51.642Z,66.53
2018-06-27T11:56:51.910Z,67.33
2018-06-27T11:57:52.115Z,65.79
2018-06-27T11:58:52.166Z,65.17
2018-06-27T11:59:55.039Z,65.47
2018-06-27T12:00:53.481Z,66.78
2018-06-27T12:01:52.859Z,65.53
2018-06-27T12:02:53.062Z,65.66
2018-06-27T12:03:53.401Z,65.27
2018-06-27T12:04:55.029Z,64.98
2018-06-27T12:05:53.573Z,65.66
2018-06-27T12:06:53.775Z,65.01
2018-06-27T12:07:53.991Z,64.59
2018-06-27T12:08:54.186Z,65.37
2018-06-27T12:09:54.379Z,66.05
2018-06-27T12:10:54.575Z,66.14
2018-06-27T12:11:54.811Z,65.95
2018-06-27T12:12:55.481Z,66.01
2018-06-27T12:13:55.215Z,66.24
2018-06-27T12:14:55.440Z,66.17
2018-06-27T12:15:56.486Z,65.30
2018-06-27T12:16:55.894Z,65.11
2018-06-27T12:17:56.175Z,65.11
2018-06-27T12:18:56.275Z,66.02
2018-06-27T12:19:56.479Z,64.37
2018-06-27T12:20:56.653Z,64.07
2018-06-27T12:21:56.836Z,64.56
2018-06-27T12:22:57.026Z,62.92
2018-06-27T12:23:57.220Z,63.49
2018-06-27T12:24:57.404Z,64.07
2018-06-27T12:25:58.549Z,63.31
2018-06-27T12:26:57.813Z,65.20
2018-06-27T12:27:58.066Z,63.37
2018-06-27T12:28:59.064Z,63.79
2018-06-27T12:29:58.456Z,64.11
2018-06-27T12:30:58.605Z,64.56
2018-06-27T12:31:58.679Z,64.89
2018-06-27T12:32:58.901Z,64.69
2018-06-27T12:34:01.143Z,64.27
2018-06-27T12:34:59.334Z,64.63
2018-06-27T12:35:59.419Z,65.92
2018-06-27T12:37:00.493Z,64.95
2018-06-27T12:37:59.822Z,65.05
2018-06-27T12:39:00.093Z,65.63
2018-06-27T12:40:00.182Z,65.47
2018-06-27T12:41:00.443Z,64.59
2018-06-27T12:42:00.591Z,63.46
2018-06-27T12:43:00.859Z,61.72
2018-06-27T12:44:03.024Z,61.98
2018-06-27T12:45:01.269Z,63.05
2018-06-27T12:46:02.054Z,62.95
2018-06-27T12:47:01.543Z,63.43
2018-06-27T12:48:01.787Z,63.24
2018-06-27T12:49:01.975Z,64.40
2018-06-27T12:50:03.116Z,64.43
2018-06-27T12:51:02.467Z,64.72
2018-06-27T12:52:02.591Z,65.14
2018-06-27T12:53:03.552Z,64.27
2018-06-27T12:54:03.495Z,63.95
2018-06-27T12:55:03.122Z,65.40
2018-06-27T12:56:03.353Z,65.37
2018-06-27T12:57:03.543Z,65.66
2018-06-27T12:58:03.618Z,64.50
2018-06-27T12:59:03.810Z,64.82
2018-06-27T13:00:04.010Z,65.59
2018-06-27T13:01:04.216Z,64.66
2018-06-27T13:03:04.600Z,63.14
2018-06-27T13:04:04.861Z,63.53
2018-06-27T13:05:04.962Z,61.88
2018-06-27T13:06:05.177Z,63.04
2018-06-27T13:07:05.366Z,62.37
2018-06-27T13:08:05.557Z,62.82